Aviation Digital Data Service (ADDS)

Output produced by METARs form (2144 UTC 08 August 2020)
found at http://www.aviationweather.gov/metar/data/
 
Forecast for: OPKC (KARACHI INTL ARP, PK)
Text: TAF OPKC 081530Z 0818/0924 26010KT 5000 DZ SCT020 BKN030
Forecast period: 1800 UTC 08 August 2020 to 0500 UTC 09 August 2020
Forecast type: FROM: standard forecast or significant change
Winds: from the W (260 degrees) at 12 MPH (10 knots; 5.1 m/s)
Visibility: 3 miles (5 km)
Ceiling: 3000 feet AGL
Clouds: scattered clouds at 2000 feet AGL
broken clouds at 3000 feet AGL
Weather: DZ  (moderate drizzle)
Text: FM090500 24010G20KT 6000 FEW020 SCT030
Forecast period: 0500 UTC 09 August 2020 to 0000 UTC 10 August 2020
Forecast type: FROM: standard forecast or significant change
Winds: from the WSW (240 degrees) at 12 MPH (10 knots; 5.1 m/s)
gusting to 23 MPH (20 knots; 10.3 m/s)
Visibility: 4 miles (6 km)
Ceiling: at least 12,000 feet AGL
Clouds: few clouds at 2000 feet AGL
scattered clouds at 3000 feet AGL
Weather: no significant weather forecast for this period